createdAt,value
2023-09-20T00:04:43.485Z,100614.17
2023-09-20T00:09:51.607Z,100614.48
2023-09-20T00:15:01.309Z,100618.57
2023-09-20T00:20:13.956Z,100624.57
2023-09-20T00:25:22.052Z,100629.73
2023-09-20T00:30:30.018Z,100631.88
2023-09-20T00:35:41.599Z,100630.34
2023-09-20T00:40:49.647Z,100628.58
2023-09-20T00:45:59.627Z,100638.77
2023-09-20T00:51:08.160Z,100635.31
2023-09-20T00:56:16.119Z,100631.54
2023-09-20T01:01:27.843Z,100629.36
2023-09-20T01:06:37.843Z,100630.31
2023-09-20T01:11:47.354Z,100630.27
2023-09-20T01:16:55.806Z,100634.13
2023-09-20T01:22:03.899Z,100628.14
2023-09-20T01:27:11.962Z,100627.21
2023-09-20T01:32:20.016Z,100620.80
2023-09-20T01:37:27.976Z,100618.86
2023-09-20T01:42:35.880Z,100615.70
2023-09-20T01:47:46.182Z,100615.20
2023-09-20T01:52:55.253Z,100609.39
2023-09-20T01:58:07.117Z,100611.22
2023-09-20T02:03:18.685Z,100613.20
2023-09-20T02:08:27.817Z,100614.17
2023-09-20T02:13:35.942Z,100618.35
2023-09-20T02:18:45.593Z,100617.35
2023-09-20T02:23:57.606Z,100621.98
2023-09-20T02:29:05.548Z,100625.98
2023-09-20T02:34:14.424Z,100622.81
2023-09-20T02:39:22.555Z,100624.00
2023-09-20T02:44:31.871Z,100625.36
2023-09-20T02:49:41.466Z,100634.02
2023-09-20T02:54:49.448Z,100633.53
2023-09-20T02:59:59.317Z,100630.77
2023-09-20T03:05:08.042Z,100630.32
2023-09-20T03:10:17.484Z,100624.71
2023-09-20T03:15:28.387Z,100624.91
2023-09-20T03:20:39.723Z,100621.21
2023-09-20T03:25:48.428Z,100617.08
2023-09-20T03:30:57.628Z,100617.05
2023-09-20T03:36:16.493Z,100620.91
2023-09-20T03:41:25.727Z,100618.48
2023-09-20T03:46:34.314Z,100618.38
2023-09-20T03:51:42.265Z,100624.66
2023-09-20T03:56:50.168Z,100622.36
2023-09-20T04:01:58.148Z,100621.35
2023-09-20T04:07:06.576Z,100626.52
2023-09-20T04:12:16.429Z,100629.91
2023-09-20T04:17:27.286Z,100637.10
2023-09-20T04:22:38.389Z,100641.90
2023-09-20T04:27:47.959Z,100639.38
2023-09-20T04:32:56.672Z,100640.42
2023-09-20T04:38:05.022Z,100642.07
2023-09-20T04:43:16.218Z,100635.26
2023-09-20T04:48:24.281Z,100638.81
2023-09-20T04:53:34.512Z,100639.56
2023-09-20T04:58:42.819Z,100640.35
2023-09-20T05:03:52.296Z,100638.72
2023-09-20T05:09:00.370Z,100634.11
2023-09-20T05:14:08.578Z,100636.52
2023-09-20T05:19:17.902Z,100640.74
2023-09-20T05:24:27.048Z,100643.08
2023-09-20T05:29:35.343Z,100644.69
2023-09-20T05:34:44.020Z,100652.98
2023-09-20T05:39:52.858Z,100655.59
2023-09-20T05:45:00.793Z,100654.20
2023-09-20T05:50:11.705Z,100654.91
2023-09-20T05:55:20.237Z,100658.05
2023-09-20T06:00:28.161Z,100664.20
2023-09-20T06:05:38.650Z,100663.20
2023-09-20T06:10:47.462Z,100664.36
2023-09-20T06:15:55.361Z,100667.55
2023-09-20T06:21:05.657Z,100665.33
2023-09-20T06:26:14.026Z,100660.28
2023-09-20T06:31:22.186Z,100666.10
2023-09-20T06:36:30.592Z,100678.19
2023-09-20T06:41:43.397Z,100682.39
2023-09-20T06:46:51.534Z,100693.95
2023-09-20T06:52:02.965Z,100694.29
2023-09-20T06:57:18.383Z,100697.98
2023-09-20T07:02:28.265Z,100700.08
2023-09-20T07:07:36.418Z,100708.77
2023-09-20T07:12:44.534Z,100708.69
2023-09-20T07:18:00.314Z,100711.34
2023-09-20T07:23:10.250Z,100712.60
2023-09-20T07:28:18.668Z,100716.50
2023-09-20T07:33:32.319Z,100711.52
2023-09-20T07:38:40.478Z,100719.95
2023-09-20T07:43:48.945Z,100718.32
2023-09-20T07:48:57.309Z,100722.48
2023-09-20T07:54:07.466Z,100718.67
2023-09-20T07:59:15.482Z,100723.56
2023-09-20T08:04:24.619Z,100722.94
2023-09-20T08:09:33.247Z,100728.38
2023-09-20T08:14:41.205Z,100726.42
2023-09-20T08:19:50.422Z,100723.41
2023-09-20T08:25:16.282Z,100722.36
2023-09-20T08:30:42.247Z,100711.38
2023-09-20T08:36:07.761Z,100710.76
2023-09-20T08:41:33.536Z,100713.00
2023-09-20T08:47:00.986Z,100714.92
2023-09-20T08:52:31.998Z,100722.77
2023-09-20T08:57:57.724Z,100725.23
2023-09-20T09:03:07.832Z,100725.10
2023-09-20T09:08:18.455Z,100726.30
2023-09-20T09:13:26.457Z,100727.73
2023-09-20T09:18:34.875Z,100721.34
2023-09-20T09:23:47.268Z,100721.53
2023-09-20T09:28:55.906Z,100724.42
2023-09-20T09:34:08.833Z,100713.29
2023-09-20T09:39:32.187Z,100708.92
2023-09-20T09:44:52.745Z,100711.16
2023-09-20T09:50:02.758Z,100715.60
2023-09-20T09:55:12.355Z,100714.52
2023-09-20T10:00:22.011Z,100716.48
2023-09-20T10:05:31.250Z,100715.95
2023-09-20T10:10:39.244Z,100713.77
2023-09-20T10:15:48.005Z,100709.80
2023-09-20T10:21:12.082Z,100704.88
2023-09-20T10:26:20.557Z,100705.76
2023-09-20T10:31:32.954Z,100706.70
2023-09-20T10:36:53.801Z,100695.98
2023-09-20T10:42:14.734Z,100689.41
2023-09-20T10:47:24.813Z,100692.75
2023-09-20T10:52:58.695Z,100686.34
2023-09-20T10:58:08.497Z,100688.71
2023-09-20T11:03:20.137Z,100686.95
2023-09-20T11:08:29.121Z,100679.16
2023-09-20T11:13:37.087Z,100666.69
2023-09-20T11:18:45.057Z,100663.17
2023-09-20T11:23:53.256Z,100661.04
2023-09-20T11:29:02.149Z,100665.38
2023-09-20T11:34:10.213Z,100657.48
2023-09-20T11:39:19.018Z,100655.24
2023-09-20T11:44:28.799Z,100644.91
2023-09-20T11:49:39.232Z,100640.01
2023-09-20T11:54:47.236Z,100635.44
2023-09-20T11:59:56.948Z,100641.21
2023-09-20T12:05:05.431Z,100635.31
2023-09-20T12:10:13.675Z,100634.48
2023-09-20T12:15:24.210Z,100627.33
2023-09-20T12:20:32.806Z,100619.68
2023-09-20T12:25:42.056Z,100615.27
2023-09-20T12:30:50.381Z,100613.08
2023-09-20T12:35:58.650Z,100601.36
2023-09-20T12:41:06.883Z,100607.95
2023-09-20T12:46:15.000Z,100607.34
2023-09-20T12:51:23.024Z,100606.34
2023-09-20T12:56:31.674Z,100604.50
2023-09-20T13:01:40.203Z,100597.58
2023-09-20T13:06:48.375Z,100592.22
2023-09-20T13:11:56.367Z,100596.04
2023-09-20T13:17:04.379Z,100592.02
2023-09-20T13:22:12.893Z,100590.01
2023-09-20T13:27:20.840Z,100589.86
2023-09-20T13:32:28.806Z,100580.34
2023-09-20T13:37:37.083Z,100576.30
2023-09-20T13:42:45.998Z,100573.80
2023-09-20T13:47:55.716Z,100574.94
2023-09-20T13:53:03.970Z,100571.38
2023-09-20T13:58:13.073Z,100561.21
2023-09-20T14:03:21.463Z,100565.05
2023-09-20T14:08:31.309Z,100564.29
2023-09-20T14:13:41.024Z,100563.53
2023-09-20T14:18:51.052Z,100556.30
2023-09-20T14:24:00.710Z,100559.08
2023-09-20T14:29:11.364Z,100554.74
2023-09-20T14:34:21.009Z,100551.30
2023-09-20T14:39:30.559Z,100549.81
2023-09-20T14:44:39.160Z,100543.36
2023-09-20T14:49:47.318Z,100541.74
2023-09-20T14:54:55.631Z,100541.42
2023-09-20T15:00:07.203Z,100542.13
2023-09-20T15:05:16.168Z,100540.55
2023-09-20T15:10:26.533Z,100539.61
2023-09-20T15:15:35.874Z,100537.17
2023-09-20T15:20:45.476Z,100532.25
2023-09-20T15:25:53.373Z,100532.98
2023-09-20T15:31:01.284Z,100532.39
2023-09-20T15:36:09.723Z,100538.75
2023-09-20T15:41:18.091Z,100536.54
2023-09-20T15:46:26.194Z,100547.45
2023-09-20T15:51:34.170Z,100546.61
2023-09-20T15:56:42.284Z,100547.85
2023-09-20T16:01:50.274Z,100551.17
2023-09-20T16:06:58.231Z,100548.91
2023-09-20T16:12:06.642Z,100546.09
2023-09-20T16:17:15.178Z,100541.98
2023-09-20T16:22:24.557Z,100537.91
2023-09-20T16:27:32.594Z,100539.85
2023-09-20T16:32:44.307Z,100539.30
2023-09-20T16:37:53.403Z,100535.69
2023-09-20T16:43:01.562Z,100533.61
2023-09-20T16:48:10.948Z,100536.15
2023-09-20T16:53:19.068Z,100531.99
2023-09-20T16:58:27.127Z,100529.13
2023-09-20T17:03:35.318Z,100530.63
2023-09-20T17:08:43.502Z,100530.16
2023-09-20T17:13:52.715Z,100527.36
2023-09-20T17:19:01.072Z,100528.60
2023-09-20T17:24:11.000Z,100524.69
2023-09-20T17:29:20.067Z,100531.92
2023-09-20T17:34:28.313Z,100537.33
2023-09-20T17:39:38.302Z,100535.69
2023-09-20T17:44:46.437Z,100539.15
2023-09-20T17:49:54.567Z,100543.76
2023-09-20T17:55:02.542Z,100545.05
2023-09-20T18:00:14.815Z,100552.77
2023-09-20T18:05:23.273Z,100551.52
2023-09-20T18:10:31.270Z,100554.22
2023-09-20T18:15:40.161Z,100551.02
2023-09-20T18:20:48.577Z,100553.86
2023-09-20T18:25:57.348Z,100555.03
2023-09-20T18:31:17.032Z,100550.20
2023-09-20T18:36:25.287Z,100545.95
2023-09-20T18:41:34.205Z,100550.56
2023-09-20T18:46:43.080Z,100548.06
2023-09-20T18:51:52.546Z,100549.09
2023-09-20T18:57:01.141Z,100553.87
2023-09-20T19:02:09.861Z,100561.94
2023-09-20T19:07:18.509Z,100555.84
2023-09-20T19:12:27.103Z,100558.04
2023-09-20T19:17:38.028Z,100551.75
2023-09-20T19:22:47.163Z,100548.89
2023-09-20T19:27:55.690Z,100549.87
2023-09-20T19:33:05.340Z,100555.08
2023-09-20T19:38:13.898Z,100554.41
2023-09-20T19:43:22.958Z,100554.00
2023-09-20T19:48:31.742Z,100551.52
2023-09-20T19:53:41.449Z,100553.51
2023-09-20T19:58:51.367Z,100548.00
2023-09-20T20:04:00.078Z,100546.34
2023-09-20T20:09:09.019Z,100543.42
2023-09-20T20:14:17.290Z,100535.46
2023-09-20T20:19:25.422Z,100536.01
2023-09-20T20:24:35.352Z,100530.85
2023-09-20T20:29:43.474Z,100522.84
2023-09-20T20:34:51.428Z,100528.48
2023-09-20T20:39:59.474Z,100526.65
2023-09-20T20:45:11.189Z,100522.89
2023-09-20T20:50:26.931Z,100517.61
2023-09-20T20:55:34.801Z,100512.14
2023-09-20T21:00:50.866Z,100513.63
2023-09-20T21:06:00.378Z,100512.10
2023-09-20T21:11:17.482Z,100506.05
2023-09-20T21:16:25.446Z,100498.85
2023-09-20T21:21:33.458Z,100496.70
2023-09-20T21:26:41.449Z,100492.75
2023-09-20T21:31:49.660Z,100487.98
2023-09-20T21:36:57.732Z,100488.28
2023-09-20T21:42:05.815Z,100490.73
2023-09-20T21:47:13.828Z,100484.71
2023-09-20T21:52:21.772Z,100484.23
2023-09-20T21:57:29.962Z,100483.02
2023-09-20T22:02:41.147Z,100486.52
2023-09-20T22:07:50.750Z,100482.89
2023-09-20T22:13:00.166Z,100475.96
2023-09-20T22:18:15.819Z,100478.52
2023-09-20T22:23:24.180Z,100471.17
2023-09-20T22:28:32.370Z,100472.19
2023-09-20T22:33:40.661Z,100476.39
2023-09-20T22:38:50.475Z,100474.79
2023-09-20T22:44:01.400Z,100468.54
2023-09-20T22:49:09.760Z,100460.58
2023-09-20T22:54:19.071Z,100460.59
2023-09-20T22:59:29.577Z,100456.95
2023-09-20T23:04:37.634Z,100451.30
2023-09-20T23:09:45.626Z,100450.71
2023-09-20T23:14:55.128Z,100449.38
2023-09-20T23:20:23.864Z,100448.23
2023-09-20T23:25:34.550Z,100449.41
2023-09-20T23:30:43.671Z,100442.27
2023-09-20T23:35:54.313Z,100440.05
2023-09-20T23:41:15.467Z,100438.73
2023-09-20T23:46:28.289Z,100435.83
2023-09-20T23:51:37.880Z,100434.64
2023-09-20T23:56:47.741Z,100432.52
